Time;durP1;ratioP1;P1;durP2;ratioP2;P2;SDS_P1;SDS_P2;PMS_P1;PMS_P2;Temp;Humidity;BMP_temperature;BMP_pressure;BME280_temperature;BME280_humidity;BME280_pressure;Samples;Min_cycle;Max_cycle;Signal;HPM_P1;HPM_P2
2021/06/18 00:00:25;;;;;;;52.97;34.60;;;19.80;99.90;;;;;;5061987;28;20396;-67
2021/06/18 00:02:56;;;;;;;52.10;35.03;;;19.80;99.90;;;;;;5063249;28;20191;-66
2021/06/18 00:05:26;;;;;;;54.60;34.40;;;19.80;99.90;;;;;;5081509;28;20195;-67
2021/06/18 00:07:54;;;;;;;58.27;34.93;;;19.80;99.90;;;;;;5081004;28;20542;-67
2021/06/18 00:10:25;;;;;;;49.87;34.63;;;19.80;99.90;;;;;;5076755;28;20188;-67
2021/06/18 00:12:54;;;;;;;48.67;33.73;;;19.80;99.90;;;;;;5079016;28;20207;-67
2021/06/18 00:15:22;;;;;;;56.03;36.30;;;19.80;99.90;;;;;;5081823;28;20184;-66
2021/06/18 00:17:52;;;;;;;52.63;35.93;;;19.80;99.90;;;;;;5083594;28;20172;-67
2021/06/18 00:20:23;;;;;;;56.10;37.17;;;19.80;99.90;;;;;;5082867;28;20188;-66
2021/06/18 00:22:51;;;;;;;58.93;37.33;;;19.80;99.90;;;;;;5077899;28;20421;-66
2021/06/18 00:25:19;;;;;;;58.40;36.53;;;19.80;99.90;;;;;;5083197;28;20353;-67
2021/06/18 00:27:48;;;;;;;53.90;36.80;;;19.90;99.90;;;;;;5079622;28;20468;-67
2021/06/18 00:30:18;;;;;;;58.87;37.60;;;19.90;99.90;;;;;;5080538;28;20226;-66
2021/06/18 00:32:47;;;;;;;60.40;39.00;;;19.80;99.90;;;;;;5079635;28;20204;-66
2021/06/18 00:35:16;;;;;;;62.60;37.70;;;19.80;99.90;;;;;;5080392;28;20200;-67
2021/06/18 00:37:46;;;;;;;68.27;39.87;;;19.80;99.90;;;;;;5073919;28;20441;-66
2021/06/18 00:40:15;;;;;;;65.13;40.73;;;19.80;99.90;;;;;;5079747;28;20180;-66
2021/06/18 00:42:45;;;;;;;68.23;41.77;;;19.80;99.90;;;;;;5080549;28;20188;-67
2021/06/18 00:45:14;;;;;;;71.97;43.03;;;19.80;99.90;;;;;;5079809;28;20188;-66
2021/06/18 00:47:48;;;;;;;77.40;44.70;;;19.80;99.90;;;;;;5079016;28;20184;-66
2021/06/18 00:50:17;;;;;;;89.90;45.97;;;19.80;99.90;;;;;;5077679;28;20189;-66
2021/06/18 00:52:48;;;;;;;92.07;48.53;;;19.80;99.90;;;;;;5081427;28;20326;-65
2021/06/18 00:55:17;;;;;;;80.27;46.67;;;19.80;99.90;;;;;;5081620;28;20187;-65
2021/06/18 00:57:49;;;;;;;77.57;44.83;;;19.80;99.90;;;;;;5058436;28;20241;-65
2021/06/18 01:00:19;;;;;;;77.97;46.23;;;19.80;99.90;;;;;;5080760;28;20447;-63
2021/06/18 01:06:23;;;;;;;78.30;47.63;;;19.70;99.90;;;;;;5078829;28;20179;-66
2021/06/18 01:08:58;;;;;;;84.03;48.67;;;19.70;99.90;;;;;;5078501;28;20184;-66
2021/06/18 01:11:35;;;;;;;86.03;49.63;;;19.60;99.90;;;;;;5081819;28;20203;-66
2021/06/18 01:14:14;;;;;;;87.57;50.93;;;19.60;99.90;;;;;;5079320;28;20207;-66
2021/06/18 01:16:46;;;;;;;95.67;52.83;;;19.60;99.90;;;;;;5079833;28;20336;-66
2021/06/18 01:19:25;;;;;;;95.57;52.57;;;19.60;99.90;;;;;;5079478;28;20367;-67
2021/06/18 01:21:55;;;;;;;94.57;53.27;;;19.60;99.90;;;;;;5080128;28;20551;-66
2021/06/18 01:24:40;;;;;;;98.40;53.40;;;19.60;99.90;;;;;;5075800;28;20211;-66
2021/06/18 01:27:27;;;;;;;103.83;55.40;;;19.60;99.90;;;;;;5074316;28;20445;-65
2021/06/18 01:30:02;;;;;;;93.77;52.93;;;19.60;99.90;;;;;;5079004;28;20192;-66
2021/06/18 01:32:35;;;;;;;96.43;52.87;;;19.60;99.90;;;;;;5080656;28;20271;-66
2021/06/18 01:35:06;;;;;;;96.30;51.67;;;19.60;99.90;;;;;;5077989;28;20212;-65
2021/06/18 01:37:36;;;;;;;92.50;52.00;;;19.60;99.90;;;;;;5078732;28;20191;-66
2021/06/18 01:40:09;;;;;;;94.50;51.87;;;19.60;99.90;;;;;;5079817;28;20222;-65
2021/06/18 01:42:41;;;;;;;94.40;52.20;;;19.60;99.90;;;;;;5080656;28;20195;-63
2021/06/18 01:45:17;;;;;;;94.70;51.43;;;19.60;99.90;;;;;;5073654;28;20302;-66
2021/06/18 01:47:48;;;;;;;99.60;52.63;;;19.60;99.90;;;;;;5080862;28;20218;-66
2021/06/18 01:50:18;;;;;;;97.57;51.60;;;19.50;99.90;;;;;;5079489;28;20195;-65
2021/06/18 01:52:51;;;;;;;99.73;51.20;;;19.50;99.90;;;;;;5078280;28;20196;-65
2021/06/18 01:55:24;;;;;;;106.93;54.30;;;19.50;99.90;;;;;;5074779;28;20208;-65
2021/06/18 01:57:55;;;;;;;94.43;50.90;;;19.50;99.90;;;;;;5062930;28;20183;-64
2021/06/18 02:00:27;;;;;;;112.80;55.10;;;19.50;99.90;;;;;;5060094;28;20427;-65
2021/06/18 02:02:57;;;;;;;106.63;51.77;;;19.50;99.90;;;;;;5078850;28;20189;-65
2021/06/18 02:05:26;;;;;;;113.67;51.53;;;19.50;99.90;;;;;;5075022;28;20200;-65
2021/06/18 02:07:57;;;;;;;126.13;56.63;;;19.50;99.90;;;;;;5080385;28;20206;-65
2021/06/18 02:10:27;;;;;;;115.17;56.07;;;19.50;99.90;;;;;;5079540;28;20192;-65
2021/06/18 02:12:57;;;;;;;112.70;54.40;;;19.60;99.90;;;;;;5074483;28;20422;-65
2021/06/18 02:15:29;;;;;;;146.90;55.00;;;19.50;99.90;;;;;;5080785;28;20231;-65
2021/06/18 02:17:58;;;;;;;132.37;58.00;;;19.50;99.90;;;;;;5079516;28;20205;-65
2021/06/18 02:20:26;;;;;;;127.50;60.03;;;19.50;99.90;;;;;;5077309;28;20206;-64
2021/06/18 02:22:57;;;;;;;137.60;59.83;;;19.50;99.90;;;;;;5078646;28;20184;-64
2021/06/18 02:25:26;;;;;;;153.60;62.33;;;19.50;99.90;;;;;;5062278;28;20376;-64
2021/06/18 02:27:55;;;;;;;130.80;62.57;;;19.50;99.90;;;;;;5075404;28;20229;-64
2021/06/18 02:30:24;;;;;;;153.73;65.23;;;19.50;99.90;;;;;;5077341;28;20441;-65
2021/06/18 02:32:58;;;;;;;144.80;63.53;;;19.40;99.90;;;;;;5078654;28;20475;-65
2021/06/18 02:35:27;;;;;;;165.43;64.07;;;19.40;99.90;;;;;;5076683;28;20255;-65
2021/06/18 02:37:56;;;;;;;177.33;68.30;;;19.40;99.90;;;;;;5059038;28;20272;-65
2021/06/18 02:40:27;;;;;;;187.23;68.97;;;19.40;99.90;;;;;;5071482;28;20201;-65
2021/06/18 02:42:55;;;;;;;152.03;65.20;;;19.30;99.90;;;;;;5081606;28;20432;-65
2021/06/18 02:45:24;;;;;;;155.47;65.53;;;19.40;99.90;;;;;;5073987;28;20246;-65
2021/06/18 02:47:59;;;;;;;153.53;62.97;;;19.40;99.90;;;;;;5078919;28;20200;-65
2021/06/18 02:50:37;;;;;;;142.13;62.97;;;19.40;99.90;;;;;;5079605;28;20474;-66
2021/06/18 02:53:18;;;;;;;157.03;64.50;;;19.30;99.90;;;;;;5078401;28;20469;-65
2021/06/18 02:55:52;;;;;;;135.90;59.47;;;19.30;99.90;;;;;;5083714;28;20218;-66
2021/06/18 02:58:23;;;;;;;127.27;58.50;;;19.30;99.90;;;;;;5078915;28;20281;-65
2021/06/18 03:01:17;;;;;;;117.17;54.80;;;19.30;99.90;;;;;;5060953;28;20434;-66
2021/06/18 03:03:54;;;;;;;112.57;50.93;;;19.30;99.90;;;;;;5083737;28;20184;-65
2021/06/18 03:06:24;;;;;;;104.50;49.13;;;19.20;99.90;;;;;;5080798;28;20229;-66
2021/06/18 03:08:58;;;;;;;89.93;46.67;;;19.20;99.90;;;;;;5082894;28;20218;-65
2021/06/18 03:11:29;;;;;;;84.60;44.43;;;19.20;99.90;;;;;;5079438;28;20280;-65
2021/06/18 03:14:01;;;;;;;82.17;44.47;;;19.10;99.90;;;;;;5064493;28;20254;-63
2021/06/18 03:16:31;;;;;;;87.67;44.53;;;19.10;99.90;;;;;;5081538;28;20207;-66
2021/06/18 03:19:05;;;;;;;98.47;46.23;;;19.10;99.90;;;;;;5084702;28;20188;-66
2021/06/18 03:21:36;;;;;;;92.17;46.90;;;19.10;99.90;;;;;;5082338;28;20305;-65
2021/06/18 03:24:07;;;;;;;90.27;46.80;;;19.10;99.90;;;;;;5076572;28;20413;-65
2021/06/18 03:26:39;;;;;;;95.40;48.43;;;19.10;99.90;;;;;;5081006;28;20441;-65
2021/06/18 03:29:08;;;;;;;86.57;45.50;;;19.10;99.90;;;;;;5081908;28;20262;-65
2021/06/18 03:31:38;;;;;;;92.57;47.80;;;19.10;99.90;;;;;;5076369;28;20188;-66
2021/06/18 03:34:08;;;;;;;96.87;47.93;;;19.10;99.90;;;;;;5076365;28;20188;-66
2021/06/18 03:36:36;;;;;;;81.07;45.20;;;19.10;99.90;;;;;;5079633;28;20200;-66
2021/06/18 03:39:06;;;;;;;85.90;46.87;;;19.10;99.90;;;;;;5081598;28;20184;-66
2021/06/18 03:41:37;;;;;;;84.17;45.67;;;19.10;99.90;;;;;;5082365;28;20180;-66
2021/06/18 03:44:07;;;;;;;86.17;46.40;;;19.10;99.90;;;;;;5082009;28;20184;-66
2021/06/18 03:46:36;;;;;;;91.37;46.80;;;19.10;99.90;;;;;;5083985;28;20230;-66
2021/06/18 03:49:06;;;;;;;101.17;46.67;;;19.10;99.90;;;;;;5081802;28;20188;-65
2021/06/18 03:51:37;;;;;;;93.23;47.50;;;19.10;99.90;;;;;;5076703;28;20448;-66
2021/06/18 03:54:07;;;;;;;88.83;46.57;;;19.00;99.90;;;;;;5080018;28;20179;-66
2021/06/18 03:56:37;;;;;;;85.97;44.23;;;19.00;99.90;;;;;;5083280;28;20180;-66
2021/06/18 03:59:06;;;;;;;83.90;46.33;;;19.10;99.90;;;;;;5082777;28;20262;-66
2021/06/18 04:01:38;;;;;;;81.27;45.33;;;19.10;99.90;;;;;;5080024;28;20184;-66
2021/06/18 04:04:08;;;;;;;92.40;46.53;;;19.00;99.90;;;;;;5082315;28;20176;-66
2021/06/18 04:06:39;;;;;;;86.97;46.70;;;19.10;99.90;;;;;;5061135;28;20401;-66
2021/06/18 04:09:12;;;;;;;80.33;45.17;;;19.10;99.90;;;;;;5080614;28;20186;-66
2021/06/18 04:11:42;;;;;;;100.33;46.47;;;19.10;99.90;;;;;;5077913;28;20267;-66
2021/06/18 04:14:11;;;;;;;100.23;47.60;;;19.10;99.90;;;;;;5081470;28;20196;-66
2021/06/18 04:16:40;;;;;;;96.47;50.30;;;19.10;99.90;;;;;;5082024;28;20371;-66
2021/06/18 04:19:09;;;;;;;91.47;49.63;;;19.20;99.90;;;;;;5078542;28;20441;-66
2021/06/18 04:21:44;;;;;;;96.17;47.90;;;19.20;99.90;;;;;;5063387;28;20188;-66
2021/06/18 04:24:14;;;;;;;104.20;52.40;;;19.20;99.90;;;;;;5058131;28;20196;-66
2021/06/18 04:26:43;;;;;;;98.50;52.80;;;19.20;99.90;;;;;;5078030;28;20195;-66
2021/06/18 04:29:13;;;;;;;97.80;53.60;;;19.20;99.90;;;;;;5076807;28;20192;-65
2021/06/18 04:31:41;;;;;;;100.23;53.33;;;19.20;99.90;;;;;;5079946;28;20180;-66
2021/06/18 04:34:10;;;;;;;92.37;50.93;;;19.20;99.90;;;;;;5080214;28;20233;-66
2021/06/18 04:36:39;;;;;;;93.37;51.40;;;19.30;99.90;;;;;;5081921;28;20280;-66
2021/06/18 04:39:09;;;;;;;90.17;49.93;;;19.20;99.90;;;;;;5063791;28;20184;-66
2021/06/18 04:41:40;;;;;;;93.57;51.47;;;19.20;99.90;;;;;;5078509;28;20184;-66
2021/06/18 04:44:11;;;;;;;84.67;47.20;;;19.30;99.90;;;;;;5078314;28;20179;-66
2021/06/18 04:46:40;;;;;;;93.70;50.97;;;19.30;99.90;;;;;;5078183;28;20207;-66
2021/06/18 04:49:08;;;;;;;87.00;47.57;;;19.30;99.90;;;;;;5065327;28;20367;-65
2021/06/18 04:51:37;;;;;;;85.07;47.13;;;19.30;99.90;;;;;;5079986;28;20275;-66
2021/06/18 04:54:06;;;;;;;82.83;48.27;;;19.40;99.90;;;;;;5076446;28;20183;-65
2021/06/18 04:56:38;;;;;;;77.10;46.20;;;19.40;99.90;;;;;;5061242;28;20266;-66
2021/06/18 04:59:07;;;;;;;96.90;48.97;;;19.40;99.90;;;;;;5077935;28;20208;-66
2021/06/18 05:01:35;;;;;;;90.30;48.60;;;19.40;99.90;;;;;;5080304;28;20183;-65
2021/06/18 05:04:05;;;;;;;79.00;47.07;;;19.40;99.90;;;;;;5077768;28;20184;-65
2021/06/18 05:06:34;;;;;;;80.37;46.10;;;19.40;99.90;;;;;;5079423;28;20368;-66
2021/06/18 05:09:03;;;;;;;80.03;47.53;;;19.40;99.90;;;;;;5076827;28;20449;-66
2021/06/18 05:11:33;;;;;;;82.77;47.30;;;19.40;99.90;;;;;;5074974;28;20226;-65
2021/06/18 05:14:03;;;;;;;79.17;46.20;;;19.50;99.90;;;;;;5081481;28;20184;-66
2021/06/18 05:16:32;;;;;;;71.00;45.70;;;19.50;99.90;;;;;;5078525;28;20253;-65
2021/06/18 05:19:01;;;;;;;74.93;46.63;;;19.60;99.90;;;;;;5071274;28;20184;-66
2021/06/18 05:21:29;;;;;;;78.97;47.47;;;19.60;99.90;;;;;;5077646;28;20188;-66
2021/06/18 05:23:57;;;;;;;86.50;47.40;;;19.60;99.90;;;;;;5057837;28;20184;-66
2021/06/18 05:26:26;;;;;;;81.90;48.70;;;19.60;99.90;;;;;;5061172;28;20192;-66
2021/06/18 05:28:54;;;;;;;80.57;48.67;;;19.60;99.90;;;;;;5077347;28;20253;-66
2021/06/18 05:31:24;;;;;;;70.07;45.40;;;19.70;99.90;;;;;;5080358;28;20183;-65
2021/06/18 05:33:53;;;;;;;70.40;46.27;;;19.70;99.90;;;;;;5075583;28;20417;-66
2021/06/18 05:36:22;;;;;;;73.93;45.13;;;19.60;99.90;;;;;;5075343;28;20765;-66
2021/06/18 05:38:52;;;;;;;68.10;44.13;;;19.60;99.90;;;;;;5080842;28;20199;-65
2021/06/18 05:41:21;;;;;;;69.73;44.93;;;19.60;99.90;;;;;;5078301;28;20248;-66
2021/06/18 05:43:49;;;;;;;68.77;44.10;;;19.60;99.90;;;;;;5073436;28;20371;-66
2021/06/18 05:46:18;;;;;;;72.87;45.17;;;19.70;99.90;;;;;;5078446;28;20448;-66
2021/06/18 05:48:48;;;;;;;68.33;43.50;;;19.70;99.90;;;;;;5072798;28;20491;-67
2021/06/18 05:51:17;;;;;;;72.50;45.33;;;19.70;99.90;;;;;;5080614;28;20429;-66
2021/06/18 05:53:45;;;;;;;73.93;43.67;;;19.80;99.90;;;;;;5081851;28;20213;-66
2021/06/18 05:56:17;;;;;;;66.17;42.53;;;19.90;99.90;;;;;;5082082;28;20242;-66
2021/06/18 05:58:46;;;;;;;67.80;43.17;;;19.90;99.90;;;;;;5082661;28;20255;-66
2021/06/18 06:01:15;;;;;;;61.90;42.13;;;20.00;99.90;;;;;;5075924;28;20184;-67
2021/06/18 06:04:01;;;;;;;58.73;39.77;;;19.90;99.90;;;;;;5081216;28;20435;-66
2021/06/18 06:06:29;;;;;;;58.50;39.97;;;19.90;99.90;;;;;;5082559;28;20282;-67
2021/06/18 06:08:58;;;;;;;57.07;39.30;;;20.10;99.90;;;;;;5082514;28;20184;-66
2021/06/18 06:11:29;;;;;;;58.83;37.47;;;20.10;99.90;;;;;;5079310;28;20180;-66
2021/06/18 06:14:01;;;;;;;57.17;37.30;;;20.00;99.90;;;;;;5079349;28;20184;-67
2021/06/18 06:16:30;;;;;;;46.73;35.00;;;20.00;99.90;;;;;;5061118;28;20208;-66
2021/06/18 06:19:01;;;;;;;51.13;34.83;;;20.20;99.90;;;;;;5080013;28;20222;-67
2021/06/18 06:21:29;;;;;;;48.53;34.67;;;20.20;99.90;;;;;;5078789;28;20234;-67
2021/06/18 06:23:57;;;;;;;47.73;33.70;;;20.30;99.90;;;;;;5077666;28;20207;-67
2021/06/18 06:26:28;;;;;;;46.60;33.20;;;20.50;99.90;;;;;;5077167;28;20258;-66
2021/06/18 06:28:57;;;;;;;45.93;32.13;;;20.60;99.90;;;;;;5030029;28;20208;-66
2021/06/18 06:31:25;;;;;;;43.67;32.33;;;20.70;99.90;;;;;;5078990;28;20433;-66
2021/06/18 06:33:54;;;;;;;46.37;31.97;;;20.80;99.90;;;;;;5078100;28;20220;-66
2021/06/18 06:36:24;;;;;;;42.70;30.57;;;21.00;99.90;;;;;;5077410;28;20223;-66
2021/06/18 06:38:52;;;;;;;40.17;29.50;;;21.10;99.90;;;;;;5080434;28;20180;-67
2021/06/18 06:41:21;;;;;;;39.10;29.37;;;21.10;99.90;;;;;;5078732;28;20181;-66
2021/06/18 06:43:49;;;;;;;35.20;27.23;;;21.00;99.90;;;;;;5077555;28;20413;-66
2021/06/18 06:46:21;;;;;;;31.60;27.10;;;21.10;99.90;;;;;;5056977;28;20183;-67
2021/06/18 06:49:12;;;;;;;36.93;27.87;;;21.10;99.90;;;;;;5077712;28;20184;-66
2021/06/18 06:51:42;;;;;;;30.97;25.97;;;21.20;99.90;;;;;;5075636;28;20184;-66
2021/06/18 06:54:29;;;;;;;34.03;26.23;;;21.30;99.90;;;;;;5080008;28;20417;-66
2021/06/18 06:56:57;;;;;;;32.13;25.27;;;21.40;99.90;;;;;;5062478;28;20241;-66
2021/06/18 06:59:26;;;;;;;35.30;27.00;;;21.40;99.90;;;;;;5059886;28;20235;-66
2021/06/18 07:01:55;;;;;;;32.07;25.57;;;21.60;99.90;;;;;;5081259;28;20483;-66
2021/06/18 07:04:24;;;;;;;31.10;24.03;;;21.80;99.90;;;;;;5077132;28;20435;-66
2021/06/18 07:06:53;;;;;;;26.77;22.37;;;21.90;99.90;;;;;;5078355;28;20218;-66
2021/06/18 07:09:22;;;;;;;23.23;20.27;;;21.80;99.90;;;;;;5077152;28;20490;-66
2021/06/18 07:11:51;;;;;;;26.87;20.80;;;21.70;99.90;;;;;;5076106;28;20463;-67
2021/06/18 07:14:19;;;;;;;26.27;20.57;;;21.70;99.90;;;;;;5059786;28;20489;-67
2021/06/18 07:16:50;;;;;;;23.50;19.80;;;21.80;99.90;;;;;;5078486;28;20261;-67
2021/06/18 07:19:18;;;;;;;22.83;20.27;;;21.90;99.90;;;;;;5077519;28;20200;-66
2021/06/18 07:21:48;;;;;;;25.20;18.37;;;21.90;99.90;;;;;;5078151;28;20180;-66
2021/06/18 07:24:18;;;;;;;27.23;18.80;;;21.90;99.90;;;;;;5079997;28;20191;-66
2021/06/18 07:26:46;;;;;;;22.00;19.37;;;22.10;99.90;;;;;;5075500;28;20318;-66
2021/06/18 07:29:15;;;;;;;20.53;16.67;;;22.20;99.90;;;;;;5076004;28;20253;-65
2021/06/18 07:31:44;;;;;;;19.77;17.33;;;22.30;99.90;;;;;;5077833;28;20191;-65
2021/06/18 07:34:12;;;;;;;22.20;16.33;;;22.40;99.90;;;;;;5079883;28;20200;-66
2021/06/18 07:36:41;;;;;;;17.70;15.70;;;22.60;99.90;;;;;;5080285;28;20476;-66
2021/06/18 07:39:10;;;;;;;16.37;14.67;;;22.60;99.90;;;;;;5079402;28;20192;-65
2021/06/18 07:41:40;;;;;;;18.27;14.70;;;22.60;99.90;;;;;;5082443;28;20195;-64
2021/06/18 07:44:08;;;;;;;19.83;14.07;;;22.50;99.90;;;;;;5076724;28;20184;-65
2021/06/18 07:46:37;;;;;;;18.73;16.27;;;22.40;99.90;;;;;;5082931;28;20425;-65
2021/06/18 07:49:05;;;;;;;19.93;16.13;;;22.30;99.90;;;;;;5076854;28;20226;-65
2021/06/18 07:51:38;;;;;;;23.37;16.73;;;22.30;99.90;;;;;;5082788;28;20206;-65
2021/06/18 07:54:07;;;;;;;19.80;16.47;;;22.30;99.90;;;;;;5081093;28;20172;-66
2021/06/18 07:56:40;;;;;;;19.60;17.50;;;22.30;99.90;;;;;;5082399;28;20363;-65
2021/06/18 07:59:10;;;;;;;22.10;16.67;;;22.20;99.90;;;;;;5077396;28;20216;-64
2021/06/18 08:01:39;;;;;;;23.03;17.03;;;22.40;99.90;;;;;;5079524;28;20329;-65
2021/06/18 08:04:07;;;;;;;22.00;15.77;;;22.50;99.90;;;;;;5080606;28;20211;-64
2021/06/18 08:06:36;;;;;;;21.23;16.30;;;22.80;99.90;;;;;;5077244;28;20195;-65
2021/06/18 08:09:05;;;;;;;20.50;15.33;;;23.10;99.90;;;;;;5077082;28;20224;-65
2021/06/18 08:11:34;;;;;;;16.40;14.47;;;23.30;99.90;;;;;;5082543;28;20192;-65
2021/06/18 08:14:03;;;;;;;18.07;14.20;;;23.40;99.90;;;;;;5076783;28;20189;-65
2021/06/18 08:16:33;;;;;;;20.57;13.37;;;23.60;99.90;;;;;;5083398;28;20197;-64
2021/06/18 08:19:02;;;;;;;15.67;13.40;;;23.60;99.90;;;;;;5080048;28;20428;-65
2021/06/18 08:21:30;;;;;;;22.27;12.60;;;23.80;99.90;;;;;;5075431;28;20206;-64
2021/06/18 08:23:59;;;;;;;16.20;10.77;;;24.00;99.90;;;;;;5076177;28;20463;-69
2021/06/18 08:26:27;;;;;;;18.70;11.27;;;24.10;99.90;;;;;;5079459;28;20185;-64
2021/06/18 08:28:56;;;;;;;11.40;10.20;;;24.20;99.90;;;;;;5081954;28;20243;-64
2021/06/18 08:31:25;;;;;;;16.70;9.97;;;24.30;99.90;;;;;;5078960;28;20669;-64
2021/06/18 08:33:56;;;;;;;13.77;10.00;;;24.60;99.90;;;;;;5079842;28;20192;-65
2021/06/18 08:36:25;;;;;;;11.27;10.07;;;24.60;99.90;;;;;;5080305;28;20186;-65
2021/06/18 08:38:57;;;;;;;15.97;9.80;;;24.60;99.90;;;;;;5077916;28;20277;-65
2021/06/18 08:41:25;;;;;;;13.83;9.97;;;24.80;99.90;;;;;;5079915;28;20207;-65
2021/06/18 08:43:55;;;;;;;12.70;8.83;;;24.90;99.90;;;;;;5080606;28;20236;-64
2021/06/18 08:46:23;;;;;;;16.17;9.00;;;25.00;99.90;;;;;;5080535;28;20435;-65
2021/06/18 08:48:53;;;;;;;13.43;8.50;;;25.00;99.90;;;;;;5080348;28;20204;-65
2021/06/18 08:51:22;;;;;;;12.07;8.77;;;25.10;99.90;;;;;;5081770;28;20192;-65
2021/06/18 08:53:51;;;;;;;11.30;8.53;;;25.00;99.90;;;;;;5077485;28;20180;-65
2021/06/18 08:56:20;;;;;;;10.17;9.20;;;24.90;99.90;;;;;;5077716;28;20188;-64
2021/06/18 08:58:48;;;;;;;13.53;9.00;;;24.70;99.90;;;;;;5079198;28;20284;-65
2021/06/18 09:01:17;;;;;;;12.67;9.20;;;24.70;99.90;;;;;;5078799;28;20420;-65
2021/06/18 09:03:48;;;;;;;10.10;9.07;;;24.90;99.90;;;;;;5080549;28;20279;-64
2021/06/18 09:06:34;;;;;;;11.90;9.03;;;24.80;99.90;;;;;;5074462;28;20188;-65
2021/06/18 09:09:14;;;;;;;11.83;8.90;;;24.90;99.90;;;;;;5081965;28;20529;-65
2021/06/18 09:11:45;;;;;;;13.17;8.53;;;24.90;99.90;;;;;;5075275;28;20772;-65
2021/06/18 09:14:15;;;;;;;15.53;7.93;;;25.00;99.90;;;;;;5052430;28;20365;-65
2021/06/18 09:17:01;;;;;;;17.83;8.00;;;25.30;99.90;;;;;;5061890;28;20186;-64
2021/06/18 09:19:30;;;;;;;7.80;7.03;;;25.40;99.90;;;;;;5078476;28;20184;-64
2021/06/18 09:22:02;;;;;;;11.53;7.27;;;25.40;99.90;;;;;;5083248;28;20189;-65
2021/06/18 09:24:31;;;;;;;9.43;6.83;;;25.50;99.90;;;;;;5080638;28;20193;-65
2021/06/18 09:27:01;;;;;;;11.10;7.03;;;25.50;99.90;;;;;;5081917;28;20186;-65
2021/06/18 09:29:32;;;;;;;11.33;6.40;;;25.70;99.90;;;;;;5067971;28;20387;-65
2021/06/18 09:32:03;;;;;;;7.63;6.37;;;25.80;99.90;;;;;;5082295;28;20180;-64
2021/06/18 09:34:44;;;;;;;7.83;5.80;;;26.20;99.90;;;;;;5080870;28;20414;-64
2021/06/18 09:37:23;;;;;;;10.17;6.40;;;26.50;99.90;;;;;;5089104;28;20193;-65
2021/06/18 09:40:04;;;;;;;9.53;6.23;;;26.70;99.90;;;;;;5076767;28;20187;-63
2021/06/18 09:42:37;;;;;;;10.67;6.40;;;26.90;99.90;;;;;;5081517;28;20199;-64
2021/06/18 09:45:10;;;;;;;7.23;6.10;;;26.90;99.90;;;;;;5077628;28;20329;-64
2021/06/18 09:47:41;;;;;;;8.43;6.17;;;27.10;99.90;;;;;;5055669;28;20234;-64
2021/06/18 09:50:26;;;;;;;7.57;5.70;;;27.10;99.90;;;;;;5016579;28;20475;-64
2021/06/18 09:53:15;;;;;;;7.30;5.80;;;27.20;99.90;;;;;;5019177;28;20473;-63
2021/06/18 09:55:45;;;;;;;8.03;5.83;;;27.20;99.90;;;;;;5007398;28;20215;-64
2021/06/18 09:58:31;;;;;;;6.67;5.73;;;27.20;99.90;;;;;;5001873;28;20475;-63
2021/06/18 10:01:19;;;;;;;7.23;6.17;;;27.30;99.90;;;;;;5007932;28;20431;-64
2021/06/18 10:04:02;;;;;;;7.80;5.77;;;27.50;99.90;;;;;;5004599;28;20190;-64
2021/06/18 10:06:31;;;;;;;7.83;5.37;;;27.40;99.90;;;;;;5009700;28;20190;-65
2021/06/18 10:09:05;;;;;;;11.57;6.23;;;27.60;99.90;;;;;;5068255;28;20227;-64
2021/06/18 10:11:34;;;;;;;9.77;5.80;;;27.80;99.90;;;;;;5082009;28;20196;-66
2021/06/18 10:14:04;;;;;;;7.33;5.20;;;27.90;99.90;;;;;;5080853;28;20176;-66
2021/06/18 10:16:34;;;;;;;6.33;5.73;;;28.10;99.90;;;;;;5081217;28;20203;-66
2021/06/18 10:19:03;;;;;;;7.93;5.23;;;28.10;99.90;;;;;;5085401;28;20565;-66
2021/06/18 10:21:35;;;;;;;6.17;5.60;;;28.20;99.90;;;;;;5080837;28;20188;-65
2021/06/18 10:24:07;;;;;;;8.67;5.17;;;28.30;99.90;;;;;;5079988;28;20210;-63
2021/06/18 10:26:37;;;;;;;9.17;5.40;;;28.30;99.90;;;;;;5078089;28;20440;-66
2021/06/18 10:29:05;;;;;;;5.47;5.00;;;28.40;99.90;;;;;;5081431;28;20187;-65
2021/06/18 10:31:36;;;;;;;6.10;4.97;;;28.50;99.90;;;;;;5059880;28;21511;-65
2021/06/18 10:34:08;;;;;;;7.43;5.40;;;28.60;99.90;;;;;;5078118;28;20172;-65
2021/06/18 10:36:38;;;;;;;10.55;5.30;;;28.70;99.90;;;;;;5056578;28;20335;-66
2021/06/18 10:39:13;;;;;;;9.03;5.67;;;28.70;99.90;;;;;;5080776;28;20208;-65
2021/06/18 10:41:49;;;;;;;9.07;5.63;;;28.70;99.90;;;;;;5081682;28;20255;-66
2021/06/18 10:44:46;;;;;;;8.30;4.60;;;28.90;99.90;;;;;;5076382;28;20200;-65
2021/06/18 10:47:57;;;;;;;6.23;4.87;;;28.90;99.90;;;;;;5078986;28;20184;-65
2021/06/18 10:50:49;;;;;;;6.60;4.72;;;29.00;99.90;;;;;;5079430;28;20414;-65
2021/06/18 10:53:23;;;;;;;6.03;4.40;;;29.10;99.90;;;;;;5058476;28;20173;-64
2021/06/18 10:55:55;;;;;;;5.40;4.50;;;29.10;99.90;;;;;;5078953;28;20199;-65
2021/06/18 10:58:24;;;;;;;6.85;4.57;;;29.30;99.90;;;;;;5061787;28;20237;-65
2021/06/18 11:00:52;;;;;;;4.88;4.38;;;29.40;99.90;;;;;;5054205;28;20188;-65
2021/06/18 11:03:54;;;;;;;7.47;4.80;;;29.70;99.90;;;;;;5051066;28;20185;-65
2021/06/18 11:06:44;;;;;;;6.78;4.80;;;29.80;99.90;;;;;;5050322;28;20228;-65
2021/06/18 11:09:13;;;;;;;5.20;4.40;;;29.90;99.90;;;;;;5063568;28;20377;-64
2021/06/18 11:11:43;;;;;;;5.57;4.55;;;29.60;99.90;;;;;;5056673;28;20185;-64
2021/06/18 11:14:12;;;;;;;4.95;4.38;;;29.70;99.90;;;;;;5063221;28;20203;-64
2021/06/18 11:16:42;;;;;;;8.55;4.30;;;29.60;99.90;;;;;;5062083;28;20428;-64
2021/06/18 11:19:27;;;;;;;4.70;4.30;;;29.60;99.90;;;;;;5055993;28;20263;-65
2021/06/18 11:21:57;;;;;;;4.90;4.50;;;29.60;99.90;;;;;;5061995;28;20193;-64
2021/06/18 11:24:38;;;;;;;5.72;4.45;;;29.60;99.90;;;;;;5061886;28;20200;-65
2021/06/18 11:27:27;;;;;;;5.60;4.65;;;29.70;99.90;;;;;;5060494;28;20186;-66
2021/06/18 11:30:30;;;;;;;10.75;4.47;;;29.80;99.90;;;;;;5058855;28;20201;-64
2021/06/18 11:32:59;;;;;;;5.30;4.80;;;29.90;99.90;;;;;;5014397;28;20205;-64
2021/06/18 11:35:43;;;;;;;6.90;4.95;;;30.10;99.90;;;;;;5017896;28;20225;-64
2021/06/18 11:38:15;;;;;;;5.47;4.65;;;30.20;99.90;;;;;;5044730;28;20392;-64
2021/06/18 11:40:45;;;;;;;5.20;4.40;;;30.10;99.90;;;;;;5077767;28;20204;-65
2021/06/18 11:43:15;;;;;;;4.78;4.10;;;29.90;99.90;;;;;;5080638;28;20227;-64
2021/06/18 11:45:45;;;;;;;6.22;4.97;;;30.00;99.90;;;;;;5061910;28;20182;-64
2021/06/18 11:48:15;;;;;;;5.38;4.32;;;30.00;99.90;;;;;;5079477;28;20174;-65
2021/06/18 11:50:46;;;;;;;7.85;4.63;;;29.90;99.90;;;;;;5061850;28;20211;-64
2021/06/18 11:53:17;;;;;;;4.90;4.20;;;29.90;99.90;;;;;;5064247;28;20193;-64
2021/06/18 11:55:57;;;;;;;7.97;4.85;;;29.90;99.90;;;;;;5061306;28;20194;-65
2021/06/18 11:58:35;;;;;;;4.55;4.20;;;29.90;99.90;;;;;;5064962;28;20215;-64
2021/06/18 12:01:11;;;;;;;7.43;4.45;;;29.90;99.90;;;;;;5080598;28;20183;-65
2021/06/18 12:03:42;;;;;;;5.38;4.22;;;30.10;99.90;;;;;;5080407;28;20250;-64
2021/06/18 12:06:18;;;;;;;5.07;4.57;;;30.10;99.90;;;;;;5077350;28;20190;-64
2021/06/18 12:09:00;;;;;;;4.53;4.13;;;30.10;99.90;;;;;;5082740;28;20227;-64
2021/06/18 12:11:29;;;;;;;7.70;4.50;;;30.20;99.90;;;;;;5081021;28;20509;-66
2021/06/18 12:13:59;;;;;;;7.47;4.50;;;30.20;99.90;;;;;;5083166;28;20185;-65
2021/06/18 12:16:28;;;;;;;9.45;4.88;;;30.10;99.90;;;;;;5075262;28;20501;-65
2021/06/18 12:18:57;;;;;;;4.80;4.30;;;30.10;99.90;;;;;;5077904;28;20245;-65
2021/06/18 12:21:28;;;;;;;7.38;4.88;;;30.20;99.90;;;;;;5074838;28;20246;-64
2021/06/18 12:24:02;;;;;;;8.32;4.75;;;30.00;99.90;;;;;;5046224;28;20197;-64
2021/06/18 12:26:31;;;;;;;5.70;4.70;;;29.90;99.90;;;;;;5063803;28;20196;-63
2021/06/18 12:29:01;;;;;;;5.65;4.70;;;30.10;99.90;;;;;;5071378;28;20191;-65
2021/06/18 12:31:32;;;;;;;5.28;4.75;;;29.90;99.90;;;;;;5078173;28;20453;-64
2021/06/18 12:34:01;;;;;;;5.30;4.80;;;29.70;99.90;;;;;;5079852;28;20180;-64
2021/06/18 12:36:35;;;;;;;5.80;4.90;;;29.60;99.90;;;;;;5079747;28;20251;-66
2021/06/18 12:39:14;;;;;;;8.32;5.07;;;29.70;99.90;;;;;;5080518;28;20211;-65
2021/06/18 12:41:50;;;;;;;7.45;4.53;;;29.70;99.90;;;;;;5059062;28;20182;-64
2021/06/18 12:44:35;;;;;;;6.25;4.72;;;29.90;99.90;;;;;;5074681;28;20199;-64
2021/06/18 12:47:10;;;;;;;5.97;4.60;;;29.90;99.90;;;;;;5065757;28;20194;-65
2021/06/18 12:49:42;;;;;;;5.18;4.78;;;29.90;99.90;;;;;;5067648;28;20340;-64
2021/06/18 12:52:15;;;;;;;5.07;4.60;;;29.80;99.90;;;;;;5049569;28;20201;-63
2021/06/18 12:54:44;;;;;;;6.07;4.25;;;29.90;99.90;;;;;;5068621;28;20432;-64
2021/06/18 12:57:26;;;;;;;6.95;5.00;;;30.00;99.90;;;;;;5065122;28;20192;-62